Time;durP1;ratioP1;P1;durP2;ratioP2;P2;SDS_P1;SDS_P2;PMS_P1;PMS_P2;Temp;Humidity;BMP_temperature;BMP_pressure;BME280_temperature;BME280_humidity;BME280_pressure;Samples;Min_cycle;Max_cycle;Signal;HPM_P1;HPM_P2
2022/06/25 00:02:16;;;;;;;7.03;2.22;;;;;;;;;;9975799;28;20065;-75
2022/06/25 00:07:14;;;;;;;6.53;3.13;;;;;;;;;;9984987;28;20061;-75
2022/06/25 00:17:22;;;;;;;6.20;2.67;;;;;;;;;;9985178;28;20503;-74
2022/06/25 00:22:15;;;;;;;23.35;4.30;;;;;;;;;;9989986;28;20054;-66
2022/06/25 00:27:09;;;;;;;7.90;2.40;;;;;;;;;;9989101;28;20054;-66
2022/06/25 00:32:09;;;;;;;12.38;2.75;;;;;;;;;;9987707;28;20039;-67
2022/06/25 00:37:03;;;;;;;11.70;2.53;;;;;;;;;;9990161;28;20054;-66
2022/06/25 00:41:57;;;;;;;9.93;2.83;;;;;;;;;;9988409;28;20044;-65
2022/06/25 00:46:51;;;;;;;13.90;2.75;;;;;;;;;;9983762;28;20074;-65
2022/06/25 00:51:48;;;;;;;10.43;2.45;;;;;;;;;;9987602;28;20054;-68
2022/06/25 00:56:49;;;;;;;14.23;2.93;;;;;;;;;;9987238;28;20542;-66
2022/06/25 01:01:42;;;;;;;8.88;2.15;;;;;;;;;;9987774;28;20738;-66
2022/06/25 01:06:36;;;;;;;5.93;1.95;;;;;;;;;;9983880;28;20467;-65
2022/06/25 01:11:30;;;;;;;10.00;2.50;;;;;;;;;;9987768;28;20042;-65
2022/06/25 01:16:24;;;;;;;10.27;2.75;;;;;;;;;;9981352;28;20046;-65
2022/06/25 01:21:18;;;;;;;6.03;2.25;;;;;;;;;;9973568;28;20129;-65
2022/06/25 01:26:12;;;;;;;7.00;2.17;;;;;;;;;;9989699;28;20066;-65
2022/06/25 01:31:05;;;;;;;17.52;5.72;;;;;;;;;;9987044;28;20062;-64
2022/06/25 01:35:59;;;;;;;9.13;2.78;;;;;;;;;;9985916;28;20072;-64
2022/06/25 01:40:53;;;;;;;9.65;3.25;;;;;;;;;;9985561;28;20439;-64
2022/06/25 01:45:47;;;;;;;9.68;2.72;;;;;;;;;;9985570;28;20503;-64
2022/06/25 01:50:41;;;;;;;6.20;2.55;;;;;;;;;;9991534;28;20486;-64
2022/06/25 01:55:35;;;;;;;5.20;2.20;;;;;;;;;;10017336;28;20426;-64
2022/06/25 02:00:31;;;;;;;11.02;2.72;;;;;;;;;;9985911;28;20121;-64
2022/06/25 02:10:43;;;;;;;8.75;2.42;;;;;;;;;;9993488;28;20077;-66
2022/06/25 02:15:36;;;;;;;9.82;3.30;;;;;;;;;;9996435;28;20081;-66
2022/06/25 02:20:29;;;;;;;6.43;2.42;;;;;;;;;;9994025;28;20129;-66
2022/06/25 02:25:23;;;;;;;7.70;2.08;;;;;;;;;;9992744;28;20082;-65
2022/06/25 02:30:16;;;;;;;7.57;3.05;;;;;;;;;;9993763;28;20070;-65
2022/06/25 02:35:09;;;;;;;7.50;2.88;;;;;;;;;;9993691;28;20538;-65
2022/06/25 02:40:06;;;;;;;6.35;2.40;;;;;;;;;;9991995;28;20568;-65
2022/06/25 02:45:06;;;;;;;9.55;3.22;;;;;;;;;;9988733;28;20050;-65
2022/06/25 02:50:02;;;;;;;4.80;2.00;;;;;;;;;;9979382;28;20074;-65
2022/06/25 02:54:56;;;;;;;8.48;2.83;;;;;;;;;;10022738;28;20458;-64
2022/06/25 02:59:57;;;;;;;10.95;2.80;;;;;;;;;;9991706;28;20050;-65
2022/06/25 03:04:50;;;;;;;7.75;2.65;;;;;;;;;;9992028;28;20046;-65
2022/06/25 03:09:43;;;;;;;13.65;2.58;;;;;;;;;;9990439;28;20058;-65
2022/06/25 03:14:39;;;;;;;8.18;2.65;;;;;;;;;;9990954;28;20411;-65
2022/06/25 03:19:32;;;;;;;10.85;2.90;;;;;;;;;;9992247;28;20050;-65
2022/06/25 03:24:50;;;;;;;7.63;2.75;;;;;;;;;;10021890;28;20038;-65
2022/06/25 03:29:43;;;;;;;9.80;3.55;;;;;;;;;;9988517;28;20113;-64
2022/06/25 03:34:38;;;;;;;13.77;2.45;;;;;;;;;;9990161;28;20503;-65
2022/06/25 03:39:32;;;;;;;10.00;3.08;;;;;;;;;;9989458;28;20515;-64
2022/06/25 03:44:26;;;;;;;7.25;2.75;;;;;;;;;;9990106;28;20144;-67
2022/06/25 03:49:28;;;;;;;12.35;3.10;;;;;;;;;;9974769;28;20042;-67
2022/06/25 03:54:23;;;;;;;15.05;3.00;;;;;;;;;;9988903;28;20113;-65
2022/06/25 03:59:17;;;;;;;7.70;3.30;;;;;;;;;;9990853;28;20046;-65
2022/06/25 04:04:15;;;;;;;6.73;3.07;;;;;;;;;;9988220;28;20139;-65
2022/06/25 04:09:09;;;;;;;6.47;3.70;;;;;;;;;;9988399;28;20054;-65
2022/06/25 04:14:03;;;;;;;14.38;3.55;;;;;;;;;;9988210;28;20133;-65
2022/06/25 04:18:56;;;;;;;12.75;3.47;;;;;;;;;;9988565;28;20042;-64
2022/06/25 04:23:55;;;;;;;;;;;;;;;;;;9988382;28;20070;-66
2022/06/25 04:29:04;;;;;;;13.25;3.53;;;;;;;;;;9987902;28;19923;-63
2022/06/25 04:34:24;;;;;;;7.50;3.05;;;;;;;;;;9987895;28;20053;-64
2022/06/25 04:39:18;;;;;;;8.18;4.07;;;;;;;;;;9987301;28;20129;-65
2022/06/25 04:44:15;;;;;;;9.27;5.20;;;;;;;;;;9987605;28;20050;-65
2022/06/25 04:49:08;;;;;;;10.73;5.15;;;;;;;;;;9982864;28;20061;-64
2022/06/25 04:54:07;;;;;;;11.53;4.93;;;;;;;;;;9988539;28;20069;-65
2022/06/25 04:59:06;;;;;;;11.70;4.75;;;;;;;;;;9989428;28;20431;-64
2022/06/25 05:04:19;;;;;;;10.80;4.30;;;;;;;;;;9988117;28;20051;-66
2022/06/25 05:09:13;;;;;;;10.20;5.03;;;;;;;;;;9992194;28;20054;-66
2022/06/25 05:14:07;;;;;;;6.63;3.50;;;;;;;;;;9986775;28;20141;-65
2022/06/25 05:19:01;;;;;;;16.83;4.20;;;;;;;;;;9986657;28;20069;-64
2022/06/25 05:23:57;;;;;;;9.27;3.90;;;;;;;;;;10022498;28;20080;-65
2022/06/25 05:28:51;;;;;;;7.65;3.17;;;;;;;;;;9987880;28;20046;-65
2022/06/25 05:33:49;;;;;;;11.20;3.90;;;;;;;;;;9986313;28;20050;-65
2022/06/25 05:38:42;;;;;;;9.48;3.13;;;;;;;;;;9987764;28;20045;-66
2022/06/25 05:43:55;;;;;;;7.25;3.30;;;;;;;;;;9994564;28;20046;-65
2022/06/25 05:48:49;;;;;;;8.10;2.97;;;;;;;;;;9989090;28;20078;-64
2022/06/25 05:53:44;;;;;;;6.15;3.63;;;;;;;;;;9996946;28;20495;-64
2022/06/25 05:58:38;;;;;;;8.57;3.13;;;;;;;;;;9994756;28;20047;-65
2022/06/25 06:03:32;;;;;;;9.10;3.50;;;;;;;;;;10004965;28;20440;-64
2022/06/25 06:08:26;;;;;;;5.05;2.92;;;;;;;;;;10024343;28;20050;-64
2022/06/25 06:13:20;;;;;;;7.63;3.80;;;;;;;;;;9998173;28;20512;-65
2022/06/25 06:18:14;;;;;;;8.75;3.33;;;;;;;;;;9993509;28;20392;-65
2022/06/25 06:23:09;;;;;;;6.82;3.67;;;;;;;;;;9995033;28;20054;-65
2022/06/25 06:28:04;;;;;;;11.25;3.78;;;;;;;;;;9993348;28;20054;-65
2022/06/25 06:32:58;;;;;;;15.45;3.13;;;;;;;;;;9985242;28;20514;-65
2022/06/25 06:37:52;;;;;;;5.50;2.70;;;;;;;;;;9993785;28;20053;-65
2022/06/25 06:42:47;;;;;;;9.55;3.53;;;;;;;;;;10013114;28;20491;-65
2022/06/25 06:47:41;;;;;;;6.53;3.20;;;;;;;;;;10016716;28;20053;-65
2022/06/25 06:52:35;;;;;;;7.32;3.10;;;;;;;;;;10019081;28;20053;-65
2022/06/25 06:57:29;;;;;;;7.80;3.10;;;;;;;;;;9998907;28;20049;-66
2022/06/25 07:02:24;;;;;;;8.02;3.10;;;;;;;;;;9992314;28;20499;-65
2022/06/25 07:07:17;;;;;;;5.95;3.03;;;;;;;;;;9998794;28;20545;-65
2022/06/25 07:12:12;;;;;;;9.20;2.80;;;;;;;;;;10008347;28;20049;-65
2022/06/25 07:17:06;;;;;;;12.52;3.20;;;;;;;;;;10013725;28;20081;-65
2022/06/25 07:22:00;;;;;;;8.73;3.15;;;;;;;;;;10009639;28;20046;-65
2022/06/25 07:26:53;;;;;;;8.80;2.92;;;;;;;;;;10013395;28;20041;-65
2022/06/25 07:31:48;;;;;;;12.20;2.97;;;;;;;;;;10015625;28;20061;-65
2022/06/25 07:36:43;;;;;;;6.10;2.47;;;;;;;;;;10009329;28;20145;-65
2022/06/25 07:41:37;;;;;;;7.15;3.17;;;;;;;;;;10012721;28;20069;-65
2022/06/25 07:46:31;;;;;;;16.17;3.55;;;;;;;;;;9991153;28;20078;-66
2022/06/25 07:56:38;;;;;;;5.55;2.97;;;;;;;;;;9989059;28;20157;-65
2022/06/25 08:01:32;;;;;;;8.10;2.63;;;;;;;;;;9989552;28;20108;-65
2022/06/25 08:06:27;;;;;;;5.20;2.60;;;;;;;;;;9990097;28;20157;-66
2022/06/25 08:11:21;;;;;;;9.13;2.92;;;;;;;;;;9991087;28;20558;-72
2022/06/25 08:16:15;;;;;;;10.35;3.03;;;;;;;;;;9993928;28;20101;-72
2022/06/25 08:21:09;;;;;;;8.02;2.97;;;;;;;;;;10008316;28;20483;-72
2022/06/25 08:26:03;;;;;;;7.60;2.30;;;;;;;;;;9992551;28;20093;-72
2022/06/25 08:30:57;;;;;;;8.65;2.75;;;;;;;;;;9985387;28;20069;-70
2022/06/25 08:35:52;;;;;;;5.22;2.40;;;;;;;;;;9988633;28;20065;-66
2022/06/25 08:40:47;;;;;;;16.92;2.78;;;;;;;;;;9988496;28;20491;-65
2022/06/25 08:45:41;;;;;;;10.98;2.10;;;;;;;;;;9989024;28;20506;-66
2022/06/25 08:50:37;;;;;;;6.10;3.88;;;;;;;;;;9992235;28;20069;-68
2022/06/25 08:55:36;;;;;;;6.22;2.42;;;;;;;;;;9988087;28;20574;-68
2022/06/25 09:00:32;;;;;;;8.63;2.78;;;;;;;;;;9985413;28;20454;-69
2022/06/25 09:05:30;;;;;;;7.90;3.05;;;;;;;;;;9988022;28;20101;-71
2022/06/25 09:10:25;;;;;;;3.67;2.30;;;;;;;;;;9994618;28;20499;-69
2022/06/25 09:15:25;;;;;;;9.65;2.50;;;;;;;;;;9993454;28;20054;-69
2022/06/25 09:20:19;;;;;;;13.80;2.40;;;;;;;;;;9987609;28;20097;-68
2022/06/25 09:25:13;;;;;;;5.05;1.75;;;;;;;;;;9987008;28;20050;-68
2022/06/25 09:30:10;;;;;;;7.82;2.20;;;;;;;;;;9987171;28;20055;-69
2022/06/25 09:35:05;;;;;;;5.78;2.05;;;;;;;;;;10011185;28;20125;-69
2022/06/25 09:39:59;;;;;;;8.20;2.75;;;;;;;;;;9987931;28;20054;-68
2022/06/25 09:45:21;;;;;;;7.30;2.78;;;;;;;;;;9989009;28;20189;-68
2022/06/25 09:50:19;;;;;;;7.72;2.08;;;;;;;;;;9986762;28;20065;-69
2022/06/25 09:55:13;;;;;;;6.82;2.55;;;;;;;;;;9992884;28;20391;-67
2022/06/25 10:00:10;;;;;;;10.80;1.92;;;;;;;;;;10010044;28;20046;-68
2022/06/25 10:05:04;;;;;;;7.22;2.03;;;;;;;;;;9986863;28;20054;-69
2022/06/25 10:09:59;;;;;;;6.88;1.60;;;;;;;;;;9987063;28;20060;-68
2022/06/25 10:14:53;;;;;;;4.45;1.92;;;;;;;;;;9988766;28;20582;-61
2022/06/25 10:19:47;;;;;;;12.13;2.13;;;;;;;;;;9992137;28;20069;-61
2022/06/25 10:24:41;;;;;;;6.28;2.08;;;;;;;;;;9995652;28;20395;-61
2022/06/25 10:29:36;;;;;;;8.05;2.22;;;;;;;;;;9997979;28;20042;-61
2022/06/25 10:34:30;;;;;;;11.93;1.77;;;;;;;;;;10012827;28;20458;-61
2022/06/25 10:39:23;;;;;;;8.50;1.90;;;;;;;;;;10015595;28;20047;-60
2022/06/25 10:44:21;;;;;;;9.05;1.95;;;;;;;;;;9999187;28;20054;-62
2022/06/25 10:49:22;;;;;;;7.53;1.70;;;;;;;;;;9994410;28;20057;-62
2022/06/25 10:54:26;;;;;;;7.03;1.45;;;;;;;;;;9991576;28;20533;-62
2022/06/25 10:59:32;;;;;;;10.73;2.10;;;;;;;;;;9991574;28;20081;-60
2022/06/25 11:04:27;;;;;;;10.20;2.67;;;;;;;;;;9992168;28;20042;-62
2022/06/25 11:09:20;;;;;;;3.38;1.60;;;;;;;;;;10014248;28;20391;-63
2022/06/25 11:14:20;;;;;;;6.00;1.67;;;;;;;;;;10007977;28;20142;-63
2022/06/25 11:19:15;;;;;;;7.22;2.00;;;;;;;;;;9990498;28;20510;-64
2022/06/25 11:24:28;;;;;;;6.15;1.80;;;;;;;;;;9992571;28;20058;-63
2022/06/25 11:30:04;;;;;;;3.75;2.00;;;;;;;;;;10005730;28;20049;-63
2022/06/25 11:35:00;;;;;;;9.65;2.13;;;;;;;;;;10008077;28;20069;-62
2022/06/25 11:39:54;;;;;;;4.63;2.15;;;;;;;;;;10013801;28;20042;-62
2022/06/25 11:44:54;;;;;;;7.72;1.60;;;;;;;;;;10011681;28;20045;-62
2022/06/25 11:49:54;;;;;;;5.13;1.83;;;;;;;;;;10008290;28;20129;-61
2022/06/25 11:54:48;;;;;;;3.92;1.40;;;;;;;;;;9998862;28;20051;-62
2022/06/25 11:59:42;;;;;;;5.55;2.00;;;;;;;;;;9986723;28;20042;-62
2022/06/25 12:05:02;;;;;;;5.30;2.10;;;;;;;;;;9988553;28;20050;-62
2022/06/25 12:09:58;;;;;;;6.82;2.03;;;;;;;;;;9997002;28;20054;-62
2022/06/25 12:14:51;;;;;;;;;;;;;;;;;;10001034;28;20050;-63
2022/06/25 12:19:53;;;;;;;4.28;1.30;;;;;;;;;;10002077;28;20010;-64
2022/06/25 12:24:47;;;;;;;4.72;1.63;;;;;;;;;;10009039;28;20074;-62
2022/06/25 12:29:40;;;;;;;3.03;1.17;;;;;;;;;;10008084;28;20053;-62
2022/06/25 12:34:45;;;;;;;4.55;1.60;;;;;;;;;;10005371;28;20727;-62
2022/06/25 12:39:45;;;;;;;5.60;1.67;;;;;;;;;;9997932;28;20066;-65
2022/06/25 12:44:42;;;;;;;4.30;1.38;;;;;;;;;;9989215;28;20077;-61
2022/06/25 12:49:55;;;;;;;3.22;1.08;;;;;;;;;;9997401;28;20038;-61
2022/06/25 12:54:54;;;;;;;3.35;1.30;;;;;;;;;;9997252;28;20066;-61
2022/06/25 12:59:49;;;;;;;5.30;1.10;;;;;;;;;;9988674;28;20621;-62
2022/06/25 13:04:43;;;;;;;3.65;0.98;;;;;;;;;;9987811;28;20046;-62
2022/06/25 13:09:38;;;;;;;5.65;1.42;;;;;;;;;;9993537;28;20042;-61
2022/06/25 13:14:32;;;;;;;11.07;1.33;;;;;;;;;;10017380;28;20053;-61
2022/06/25 13:19:27;;;;;;;2.67;1.65;;;;;;;;;;10016366;28;20077;-62
2022/06/25 13:24:21;;;;;;;7.73;1.47;;;;;;;;;;10004580;28;20074;-62
2022/06/25 13:29:15;;;;;;;3.50;1.33;;;;;;;;;;10017607;28;20059;-62
2022/06/25 13:34:08;;;;;;;2.08;0.95;;;;;;;;;;10014993;28;20104;-62
2022/06/25 13:39:06;;;;;;;3.90;2.58;;;;;;;;;;10012611;28;20050;-65
2022/06/25 13:44:00;;;;;;;8.75;1.48;;;;;;;;;;10015315;28;20050;-62
2022/06/25 13:48:53;;;;;;;7.10;1.42;;;;;;;;;;10010896;28;20058;-62
2022/06/25 13:53:48;;;;;;;1.70;1.00;;;;;;;;;;10008216;28;20125;-64
2022/06/25 13:58:41;;;;;;;4.78;1.10;;;;;;;;;;10008693;28;20430;-63
2022/06/25 14:03:35;;;;;;;5.53;1.00;;;;;;;;;;9996649;28;20121;-62
2022/06/25 14:08:29;;;;;;;3.75;0.90;;;;;;;;;;9998573;28;20038;-70
2022/06/25 14:13:24;;;;;;;5.40;1.48;;;;;;;;;;9994474;28;20125;-63
2022/06/25 14:18:19;;;;;;;5.93;0.80;;;;;;;;;;10011344;28;20531;-64
2022/06/25 14:23:13;;;;;;;0.80;0.60;;;;;;;;;;10015614;28;20058;-62
2022/06/25 14:28:07;;;;;;;2.08;1.02;;;;;;;;;;10014632;28;20054;-62
2022/06/25 14:33:05;;;;;;;0.75;0.70;;;;;;;;;;10009049;28;20047;-63
2022/06/25 14:43:11;;;;;;;3.67;0.73;;;;;;;;;;10016234;28;20105;-63
2022/06/25 14:48:07;;;;;;;3.45;0.70;;;;;;;;;;9998295;28;20054;-63
2022/06/25 14:53:01;;;;;;;2.45;0.85;;;;;;;;;;10000260;28;20380;-63
2022/06/25 14:57:55;;;;;;;2.08;0.85;;;;;;;;;;9977649;28;20050;-63
2022/06/25 15:02:49;;;;;;;2.78;0.63;;;;;;;;;;9982236;28;20054;-63
2022/06/25 15:07:44;;;;;;;4.07;0.65;;;;;;;;;;9974501;28;20127;-64
2022/06/25 15:12:38;;;;;;;3.20;0.60;;;;;;;;;;9981409;28;20050;-75
2022/06/25 15:17:33;;;;;;;3.25;0.85;;;;;;;;;;9980504;28;20131;-79
2022/06/25 15:22:27;;;;;;;4.65;0.80;;;;;;;;;;9982235;28;20490;-72
2022/06/25 15:27:21;;;;;;;2.75;0.65;;;;;;;;;;10009210;28;20066;-74
2022/06/25 15:32:15;;;;;;;1.48;0.60;;;;;;;;;;10002067;28;20122;-74
2022/06/25 15:37:09;;;;;;;2.55;0.65;;;;;;;;;;10005465;28;20137;-73
2022/06/25 15:42:04;;;;;;;6.85;0.60;;;;;;;;;;10004025;28;20090;-72
2022/06/25 15:46:57;;;;;;;1.95;0.90;;;;;;;;;;9992361;28;20050;-67
2022/06/25 15:51:52;;;;;;;5.20;0.88;;;;;;;;;;10005230;28;20070;-67
2022/06/25 15:56:45;;;;;;;2.17;0.50;;;;;;;;;;10003162;28;20152;-67
2022/06/25 16:01:43;;;;;;;2.35;0.80;;;;;;;;;;10002436;28;20500;-67
2022/06/25 16:06:37;;;;;;;1.52;0.65;;;;;;;;;;9994097;28;20061;-69
2022/06/25 16:11:31;;;;;;;2.05;0.60;;;;;;;;;;9987728;28;20133;-68
2022/06/25 16:16:27;;;;;;;1.45;0.75;;;;;;;;;;9988925;28;20073;-68
2022/06/25 16:21:25;;;;;;;1.80;0.60;;;;;;;;;;10000020;28;20042;-69
2022/06/25 16:26:19;;;;;;;2.25;0.70;;;;;;;;;;10005461;28;20054;-68
2022/06/25 16:31:13;;;;;;;1.88;0.80;;;;;;;;;;9989637;28;20108;-70
2022/06/25 16:36:08;;;;;;;1.08;0.68;;;;;;;;;;9991369;28;20058;-78
2022/06/25 16:41:02;;;;;;;0.65;0.47;;;;;;;;;;9989417;28;20046;-74
2022/06/25 16:45:57;;;;;;;1.00;0.30;;;;;;;;;;9989148;28;20050;-75
2022/06/25 16:50:51;;;;;;;1.38;0.70;;;;;;;;;;9999633;28;20074;-77
2022/06/25 16:55:51;;;;;;;3.42;0.80;;;;;;;;;;9988212;28;20558;-74
2022/06/25 17:00:45;;;;;;;5.63;0.80;;;;;;;;;;9983383;28;20483;-72
2022/06/25 17:05:40;;;;;;;1.30;0.68;;;;;;;;;;9980987;28;20425;-73
2022/06/25 17:10:34;;;;;;;1.80;0.90;;;;;;;;;;9987113;28;20053;-74
2022/06/25 17:15:27;;;;;;;1.77;0.57;;;;;;;;;;9989000;28;20104;-74
2022/06/25 17:20:21;;;;;;;2.22;0.80;;;;;;;;;;9989491;28;20100;-75
2022/06/25 17:25:15;;;;;;;2.78;1.30;;;;;;;;;;9987865;28;20072;-75
2022/06/25 17:30:11;;;;;;;1.88;0.90;;;;;;;;;;9988364;28;20477;-74
2022/06/25 17:35:07;;;;;;;7.63;1.00;;;;;;;;;;9993101;28;20046;-73
2022/06/25 17:40:01;;;;;;;6.72;1.90;;;;;;;;;;10007285;28;20128;-74
2022/06/25 17:44:55;;;;;;;2.58;1.00;;;;;;;;;;10009443;28;20045;-68
2022/06/25 17:49:49;;;;;;;1.38;0.75;;;;;;;;;;9987866;28;20058;-64
2022/06/25 17:54:43;;;;;;;3.47;0.90;;;;;;;;;;9980994;28;20474;-69
2022/06/25 17:59:36;;;;;;;1.83;0.90;;;;;;;;;;9990387;28;20096;-68
2022/06/25 18:04:30;;;;;;;2.75;0.77;;;;;;;;;;10004499;28;20058;-70
2022/06/25 18:09:25;;;;;;;1.95;0.82;;;;;;;;;;9983962;28;20051;-73
2022/06/25 18:14:19;;;;;;;3.22;1.08;;;;;;;;;;9977423;28;20054;-70
2022/06/25 18:19:13;;;;;;;4.28;1.17;;;;;;;;;;9982844;28;20050;-69
2022/06/25 18:24:07;;;;;;;1.90;1.20;;;;;;;;;;9997834;28;20050;-69
2022/06/25 18:29:02;;;;;;;3.75;1.30;;;;;;;;;;9997318;28;20046;-69
2022/06/25 18:33:55;;;;;;;2.95;1.00;;;;;;;;;;9984306;28;20473;-70
2022/06/25 18:38:49;;;;;;;6.60;1.17;;;;;;;;;;9970219;28;20140;-70
2022/06/25 18:43:42;;;;;;;3.83;0.90;;;;;;;;;;10002898;28;20426;-67
2022/06/25 18:48:36;;;;;;;5.75;1.30;;;;;;;;;;10007342;28;20585;-67
2022/06/25 18:53:31;;;;;;;3.97;1.30;;;;;;;;;;10005383;28;20062;-67
2022/06/25 18:58:25;;;;;;;2.50;1.00;;;;;;;;;;10008838;28;20053;-69
2022/06/25 19:03:19;;;;;;;3.45;1.20;;;;;;;;;;10012808;28;20049;-72
2022/06/25 19:08:13;;;;;;;2.88;1.35;;;;;;;;;;10011772;28;20455;-72
2022/06/25 19:13:07;;;;;;;3.13;1.00;;;;;;;;;;10019264;28;20061;-72
2022/06/25 19:18:01;;;;;;;3.85;1.35;;;;;;;;;;10014874;28;20055;-73
2022/06/25 19:22:54;;;;;;;1.77;1.17;;;;;;;;;;9992696;28;20061;-71
2022/06/25 19:27:48;;;;;;;2.25;1.13;;;;;;;;;;10011407;28;20134;-71
2022/06/25 19:32:41;;;;;;;1.17;1.08;;;;;;;;;;10018434;28;20133;-70
2022/06/25 19:37:36;;;;;;;1.85;1.20;;;;;;;;;;10014623;28;20425;-72
2022/06/25 19:42:30;;;;;;;2.63;1.00;;;;;;;;;;10014118;28;20046;-70
2022/06/25 19:47:24;;;;;;;13.95;2.28;;;;;;;;;;10020649;28;20422;-68
2022/06/25 19:52:23;;;;;;;2.15;1.20;;;;;;;;;;10016454;28;20050;-70
2022/06/25 19:57:18;;;;;;;3.63;1.00;;;;;;;;;;10013036;28;20060;-70
2022/06/25 20:02:12;;;;;;;2.80;1.40;;;;;;;;;;10008546;28;20054;-69
2022/06/25 20:07:06;;;;;;;3.90;1.33;;;;;;;;;;9990016;28;20423;-70
2022/06/25 20:12:00;;;;;;;1.88;1.40;;;;;;;;;;9987455;28;20134;-69
2022/06/25 20:16:58;;;;;;;2.60;1.13;;;;;;;;;;9986941;28;20446;-69
2022/06/25 20:21:53;;;;;;;3.70;1.25;;;;;;;;;;9987275;28;20309;-70
2022/06/25 20:26:49;;;;;;;7.35;1.42;;;;;;;;;;9992798;28;20060;-69
2022/06/25 20:31:42;;;;;;;1.60;1.05;;;;;;;;;;10008940;28;20109;-68
2022/06/25 20:36:37;;;;;;;2.03;1.00;;;;;;;;;;10010343;28;20073;-69
2022/06/25 20:41:40;;;;;;;2.45;1.17;;;;;;;;;;10008872;28;20038;-68
2022/06/25 20:46:35;;;;;;;3.17;1.60;;;;;;;;;;10008623;28;20081;-68
2022/06/25 20:51:30;;;;;;;3.65;1.23;;;;;;;;;;10006941;28;20054;-68
2022/06/25 20:56:24;;;;;;;2.92;0.90;;;;;;;;;;10005465;28;20078;-68
2022/06/25 21:01:18;;;;;;;1.98;1.17;;;;;;;;;;9990321;28;20388;-69
2022/06/25 21:11:24;;;;;;;1.63;1.17;;;;;;;;;;9984856;28;20046;-67
2022/06/25 21:16:18;;;;;;;2.97;1.20;;;;;;;;;;9985460;28;20506;-67
2022/06/25 21:21:11;;;;;;;1.35;1.10;;;;;;;;;;9987536;28;20458;-66
2022/06/25 21:26:05;;;;;;;1.20;1.08;;;;;;;;;;9983385;28;20068;-68
2022/06/25 21:31:02;;;;;;;1.42;1.00;;;;;;;;;;9983291;28;20046;-70
2022/06/25 21:35:57;;;;;;;3.72;0.90;;;;;;;;;;9982867;28;20054;-71
2022/06/25 21:40:53;;;;;;;1.98;1.10;;;;;;;;;;9978113;28;20039;-67
2022/06/25 21:45:47;;;;;;;2.65;1.40;;;;;;;;;;9976586;28;20054;-67
2022/06/25 21:50:41;;;;;;;4.50;1.42;;;;;;;;;;9979239;28;20047;-67
2022/06/25 21:55:35;;;;;;;2.85;1.17;;;;;;;;;;9984452;28;20430;-69
2022/06/25 22:00:31;;;;;;;6.47;1.48;;;;;;;;;;9986026;28;20065;-69
2022/06/25 22:05:25;;;;;;;2.75;1.42;;;;;;;;;;9979312;28;20057;-68
2022/06/25 22:10:19;;;;;;;1.77;1.23;;;;;;;;;;9984536;28;20058;-71
2022/06/25 22:15:13;;;;;;;3.83;1.38;;;;;;;;;;9980679;28;20054;-71
2022/06/25 22:20:07;;;;;;;3.47;1.50;;;;;;;;;;9983299;28;20051;-73
2022/06/25 22:25:01;;;;;;;4.78;1.42;;;;;;;;;;9991262;28;20058;-68
2022/06/25 22:29:54;;;;;;;6.97;1.67;;;;;;;;;;9988267;28;20075;-70
2022/06/25 22:34:48;;;;;;;4.82;1.42;;;;;;;;;;9986616;28;20833;-66
2022/06/25 22:39:42;;;;;;;11.40;5.50;;;;;;;;;;9982283;28;20077;-64
2022/06/25 22:44:36;;;;;;;3.15;1.30;;;;;;;;;;9984550;28;20102;-70
2022/06/25 22:49:30;;;;;;;1.48;0.98;;;;;;;;;;9978024;28;20050;-71
2022/06/25 22:54:25;;;;;;;2.30;1.35;;;;;;;;;;9982193;28;20089;-69
2022/06/25 22:59:19;;;;;;;3.33;1.10;;;;;;;;;;9982043;28;20055;-69
2022/06/25 23:04:12;;;;;;;1.75;1.10;;;;;;;;;;9989666;28;20048;-67
2022/06/25 23:09:07;;;;;;;13.80;2.60;;;;;;;;;;9988152;28;20051;-65
2022/06/25 23:14:14;;;;;;;4.87;1.40;;;;;;;;;;9988471;28;20042;-63
2022/06/25 23:19:08;;;;;;;2.22;1.40;;;;;;;;;;9993300;28;20549;-69
2022/06/25 23:24:02;;;;;;;2.90;1.30;;;;;;;;;;9993048;28;20074;-69
2022/06/25 23:28:55;;;;;;;1.83;1.15;;;;;;;;;;9992188;28;20133;-68
2022/06/25 23:33:49;;;;;;;4.20;1.20;;;;;;;;;;9991135;28;20046;-69
2022/06/25 23:38:42;;;;;;;1.92;1.40;;;;;;;;;;9992249;28;20043;-68
2022/06/25 23:43:36;;;;;;;1.30;1.20;;;;;;;;;;9994967;28;20100;-61
2022/06/25 23:48:30;;;;;;;2.38;1.38;;;;;;;;;;9987182;28;20062;-61
2022/06/25 23:53:24;;;;;;;5.82;1.52;;;;;;;;;;9990811;28;20066;-61
2022/06/25 23:58:17;;;;;;;4.43;2.25;;;;;;;;;;9990786;28;20462;-61
